createdAt,value
2022-08-03T00:04:33.938Z,21.66
2022-08-03T00:09:36.347Z,21.58
2022-08-03T00:14:38.097Z,21.48
2022-08-03T00:19:39.788Z,21.41
2022-08-03T00:24:41.582Z,21.36
2022-08-03T00:29:59.657Z,21.32
2022-08-03T00:35:04.344Z,21.27
2022-08-03T00:40:15.722Z,21.16
2022-08-03T00:45:27.878Z,21.12
2022-08-03T00:50:34.663Z,21.08
2022-08-03T00:55:37.295Z,21.03
2022-08-03T01:00:40.565Z,20.94
2022-08-03T01:05:52.625Z,20.88
2022-08-03T01:11:15.808Z,20.78
2022-08-03T01:16:35.686Z,20.71
2022-08-03T01:22:18.083Z,20.61
2022-08-03T01:27:25.929Z,20.54
2022-08-03T01:32:59.978Z,20.53
2022-08-03T01:38:05.841Z,20.46
2022-08-03T01:43:10.779Z,20.45
2022-08-03T01:48:17.072Z,20.39
2022-08-03T01:53:21.225Z,20.34
2022-08-03T01:58:25.040Z,20.30
2022-08-03T02:03:28.890Z,20.21
2022-08-03T02:08:31.256Z,20.16
2022-08-03T02:13:34.864Z,20.10
2022-08-03T02:18:39.641Z,20.05
2022-08-03T02:23:41.989Z,20.01
2022-08-03T02:28:47.613Z,19.97
2022-08-03T02:34:00.920Z,19.90
2022-08-03T02:39:05.115Z,19.86
2022-08-03T02:44:09.600Z,19.82
2022-08-03T02:49:41.076Z,19.75
2022-08-03T02:54:38.199Z,19.74
2022-08-03T02:59:41.184Z,19.69
2022-08-03T03:05:51.745Z,19.61
2022-08-03T03:10:07.958Z,19.49
2022-08-03T03:15:10.559Z,19.39
2022-08-03T03:20:12.841Z,19.32
2022-08-03T03:25:15.678Z,19.21
2022-08-03T03:30:17.416Z,19.21
2022-08-03T03:35:19.326Z,19.18
2022-08-03T03:40:22.232Z,19.16
2022-08-03T03:45:24.533Z,19.42
2022-08-03T03:50:27.414Z,19.68
2022-08-03T03:55:29.320Z,20.17
2022-08-03T04:00:31.360Z,20.66
2022-08-03T04:05:51.826Z,21.11
2022-08-03T04:11:13.206Z,21.63
2022-08-03T04:16:18.289Z,22.14
2022-08-03T04:21:23.558Z,22.64
2022-08-03T04:26:29.391Z,22.96
2022-08-03T04:31:32.405Z,23.10
2022-08-03T04:36:40.004Z,23.31
2022-08-03T04:42:07.244Z,23.48
2022-08-03T04:47:06.941Z,23.66
2022-08-03T04:52:10.146Z,23.92
2022-08-03T04:57:22.081Z,24.21
2022-08-03T05:02:25.384Z,24.48
2022-08-03T05:07:35.673Z,24.71
2022-08-03T05:12:39.147Z,24.87
2022-08-03T05:17:41.153Z,25.01
2022-08-03T05:22:42.970Z,25.11
2022-08-03T05:27:44.829Z,25.20
2022-08-03T05:32:46.534Z,25.28
2022-08-03T05:37:54.835Z,25.29
2022-08-03T05:42:57.641Z,25.33
2022-08-03T05:47:59.992Z,25.38
2022-08-03T05:53:01.865Z,25.44
2022-08-03T05:58:04.092Z,25.41
2022-08-03T06:03:06.745Z,25.37
2022-08-03T06:08:08.593Z,25.43
2022-08-03T06:13:10.418Z,25.29
2022-08-03T06:18:12.444Z,25.51
2022-08-03T06:23:17.567Z,25.57
2022-08-03T06:28:51.620Z,25.55
2022-08-03T06:34:30.213Z,25.70
2022-08-03T06:39:04.583Z,25.77
2022-08-03T06:44:06.419Z,25.82
2022-08-03T06:49:08.325Z,25.93
2022-08-03T06:54:10.905Z,25.91
2022-08-03T07:00:10.827Z,25.94
2022-08-03T07:04:34.178Z,26.00
2022-08-03T07:09:35.916Z,26.00
2022-08-03T07:14:37.763Z,26.17
2022-08-03T07:19:39.701Z,26.39
2022-08-03T07:24:44.750Z,26.44
2022-08-03T07:29:46.594Z,26.52
2022-08-03T07:34:48.322Z,26.58
2022-08-03T07:39:50.160Z,26.64
2022-08-03T07:44:52.157Z,26.62
2022-08-03T07:49:54.476Z,26.76
2022-08-03T07:54:56.250Z,26.95
2022-08-03T08:00:02.416Z,27.02
2022-08-03T08:05:13.818Z,27.13
2022-08-03T08:10:15.761Z,27.31
2022-08-03T08:15:17.462Z,27.29
2022-08-03T08:20:30.753Z,27.39
2022-08-03T08:25:34.181Z,27.48
2022-08-03T08:30:36.561Z,27.64
2022-08-03T08:35:38.565Z,27.34
2022-08-03T08:40:40.930Z,27.36
2022-08-03T08:45:42.683Z,27.38
2022-08-03T08:50:45.310Z,27.68
2022-08-03T08:55:58.447Z,27.78
2022-08-03T09:01:01.836Z,28.11
2022-08-03T09:06:04.399Z,28.26
2022-08-03T09:11:11.115Z,28.45
2022-08-03T09:16:17.562Z,28.51
2022-08-03T09:21:33.602Z,28.80
2022-08-03T09:26:37.611Z,28.95
2022-08-03T09:31:43.046Z,28.96
2022-08-03T09:36:47.703Z,28.76
2022-08-03T09:42:05.447Z,28.86
2022-08-03T09:47:07.180Z,29.04
2022-08-03T09:52:32.692Z,29.15
2022-08-03T09:57:40.954Z,29.41
2022-08-03T10:02:46.716Z,29.52
2022-08-03T10:07:49.981Z,29.71
2022-08-03T10:12:52.561Z,29.59
2022-08-03T10:17:54.209Z,29.62
2022-08-03T10:22:56.822Z,29.49
2022-08-03T10:28:02.144Z,29.78
2022-08-03T10:33:50.217Z,29.93
2022-08-03T10:38:53.101Z,30.15
2022-08-03T10:44:09.617Z,29.85
2022-08-03T10:49:34.543Z,29.96
2022-08-03T10:54:37.233Z,30.27
2022-08-03T10:59:57.776Z,30.27
2022-08-03T11:05:26.216Z,30.41
2022-08-03T11:10:31.936Z,30.61
2022-08-03T11:15:35.927Z,30.56
2022-08-03T11:20:59.319Z,30.65
2022-08-03T11:26:10.853Z,30.76
2022-08-03T11:31:49.942Z,30.92
2022-08-03T11:37:22.559Z,30.88
2022-08-03T11:42:24.724Z,31.12
2022-08-03T11:47:28.773Z,31.31
2022-08-03T11:52:38.781Z,31.54
2022-08-03T11:59:16.588Z,31.83
2022-08-03T12:03:05.982Z,32.05
2022-08-03T12:08:09.557Z,31.58
2022-08-03T12:14:10.734Z,31.62
2022-08-03T12:18:33.544Z,31.67
2022-08-03T12:23:37.981Z,32.06
2022-08-03T12:28:49.861Z,32.21
2022-08-03T12:34:10.004Z,32.21
2022-08-03T12:39:12.021Z,31.97
2022-08-03T12:44:13.929Z,32.13
2022-08-03T12:49:18.696Z,31.88
2022-08-03T12:54:24.356Z,31.99
2022-08-03T12:59:32.529Z,32.23
2022-08-03T13:04:37.178Z,32.37
2022-08-03T13:09:46.995Z,32.46
2022-08-03T13:14:51.889Z,32.81
2022-08-03T13:19:53.818Z,32.23
2022-08-03T13:24:57.760Z,32.46
2022-08-03T13:29:59.590Z,32.82
2022-08-03T13:35:02.786Z,33.08
2022-08-03T13:40:11.583Z,33.11
2022-08-03T13:45:13.724Z,32.78
2022-08-03T13:50:15.594Z,32.54
2022-08-03T13:55:17.430Z,32.37
2022-08-03T14:00:27.513Z,32.16
2022-08-03T14:05:32.076Z,32.19
2022-08-03T14:10:40.018Z,32.20
2022-08-03T14:15:42.344Z,32.11
2022-08-03T14:20:56.189Z,32.34
2022-08-03T14:25:59.038Z,32.21
2022-08-03T14:31:01.676Z,32.32
2022-08-03T14:36:18.205Z,32.32
2022-08-03T14:41:22.244Z,32.41
2022-08-03T14:46:24.198Z,32.30
2022-08-03T14:51:26.060Z,32.02
2022-08-03T14:56:33.713Z,32.06
2022-08-03T15:02:04.903Z,31.98
2022-08-03T15:06:57.294Z,31.95
2022-08-03T15:11:59.056Z,31.93
2022-08-03T15:17:01.120Z,31.73
2022-08-03T15:22:02.930Z,31.69
2022-08-03T15:27:08.582Z,31.68
2022-08-03T15:32:10.273Z,31.65
2022-08-03T15:37:16.418Z,31.70
2022-08-03T15:42:24.960Z,31.63
2022-08-03T15:47:27.033Z,31.57
2022-08-03T15:52:30.919Z,31.58
2022-08-03T15:57:32.882Z,31.58
2022-08-03T16:02:35.554Z,31.53
2022-08-03T16:08:02.619Z,31.41
2022-08-03T16:13:05.056Z,31.40
2022-08-03T16:18:07.887Z,31.47
2022-08-03T16:23:11.383Z,31.43
2022-08-03T16:28:15.093Z,31.47
2022-08-03T16:33:17.920Z,31.38
2022-08-03T16:38:19.914Z,31.35
2022-08-03T16:43:25.278Z,31.22
2022-08-03T16:48:27.155Z,31.14
2022-08-03T16:53:51.676Z,31.11
2022-08-03T16:58:50.597Z,31.06
2022-08-03T17:04:02.312Z,30.97
2022-08-03T17:09:13.908Z,30.88
2022-08-03T17:14:21.907Z,30.76
2022-08-03T17:19:24.916Z,30.58
2022-08-03T17:24:34.996Z,30.49
2022-08-03T17:29:45.227Z,30.34
2022-08-03T17:34:48.865Z,30.20
2022-08-03T17:39:59.608Z,30.11
2022-08-03T17:45:03.961Z,29.97
2022-08-03T17:50:23.912Z,29.81
2022-08-03T17:55:56.991Z,29.67
2022-08-03T18:02:00.650Z,29.53
2022-08-03T18:06:37.900Z,29.37
2022-08-03T18:12:00.920Z,29.21
2022-08-03T18:17:06.582Z,29.08
2022-08-03T18:22:13.712Z,28.96
2022-08-03T18:27:16.378Z,28.81
2022-08-03T18:32:21.449Z,28.61
2022-08-03T18:37:27.953Z,28.43
2022-08-03T18:42:32.135Z,28.30
2022-08-03T18:47:57.549Z,28.09
2022-08-03T18:53:15.646Z,27.86
2022-08-03T18:59:03.597Z,27.70
2022-08-03T19:04:13.317Z,27.45
2022-08-03T19:09:31.969Z,27.19
2022-08-03T19:14:42.446Z,27.03
2022-08-03T19:19:45.612Z,26.89
2022-08-03T19:24:49.132Z,26.74
2022-08-03T19:29:58.427Z,26.60
2022-08-03T19:35:18.698Z,26.47
2022-08-03T19:40:20.957Z,26.32
2022-08-03T19:46:04.543Z,26.18
2022-08-03T19:50:59.158Z,26.06
2022-08-03T19:56:12.685Z,25.89
2022-08-03T20:01:19.216Z,25.76
2022-08-03T20:06:23.671Z,25.64
2022-08-03T20:11:29.028Z,25.49
2022-08-03T20:16:31.057Z,25.37
2022-08-03T20:21:34.955Z,25.24
2022-08-03T20:26:41.919Z,25.10
2022-08-03T20:31:45.176Z,24.99
2022-08-03T20:36:47.091Z,24.93
2022-08-03T20:41:48.980Z,24.84
2022-08-03T20:52:18.688Z,24.59
2022-08-03T20:57:20.907Z,24.45
2022-08-03T21:02:30.496Z,24.27
2022-08-03T21:08:03.750Z,24.08
2022-08-03T21:13:12.649Z,24.72
2022-08-03T21:13:37.503Z,24.06
2022-08-03T21:18:46.232Z,23.99
2022-08-03T21:23:54.815Z,23.80
2022-08-03T21:28:56.881Z,23.67
2022-08-03T21:34:02.146Z,23.58
2022-08-03T21:39:07.365Z,23.50
2022-08-03T21:44:09.167Z,23.40
2022-08-03T21:50:07.142Z,23.21
2022-08-03T21:54:40.825Z,23.08
2022-08-03T21:59:47.976Z,22.95
2022-08-03T22:04:55.448Z,22.74
2022-08-03T22:10:00.669Z,22.44
2022-08-03T22:15:06.201Z,22.40
2022-08-03T22:20:10.541Z,22.28
2022-08-03T22:25:15.940Z,22.21
2022-08-03T22:30:19.328Z,22.23
2022-08-03T22:35:23.865Z,22.20
2022-08-03T22:40:26.722Z,22.12
2022-08-03T22:46:07.543Z,22.05
2022-08-03T22:50:50.778Z,21.95
2022-08-03T22:55:52.934Z,21.88
2022-08-03T23:00:58.617Z,21.87
2022-08-03T23:06:03.699Z,21.78
2022-08-03T23:11:08.690Z,21.75
2022-08-03T23:16:10.705Z,21.73
2022-08-03T23:21:12.385Z,21.65
2022-08-03T23:26:17.655Z,21.56
2022-08-03T23:31:21.951Z,21.51
2022-08-03T23:36:31.198Z,21.47
2022-08-03T23:41:35.455Z,21.46
2022-08-03T23:46:38.309Z,21.37
2022-08-03T23:52:03.166Z,21.31
2022-08-03T23:57:04.945Z,21.28
